createdAt,value
2018-05-21T00:02:19.552Z,93.50
2018-05-21T00:04:47.888Z,93.50
2018-05-21T00:07:16.176Z,93.80
2018-05-21T00:09:44.483Z,93.60
2018-05-21T00:12:12.776Z,93.90
2018-05-21T00:14:41.873Z,93.20
2018-05-21T00:17:10.152Z,93.20
2018-05-21T00:19:38.472Z,93.60
2018-05-21T00:22:06.773Z,93.10
2018-05-21T00:24:35.095Z,92.70
2018-05-21T00:27:03.387Z,93.10
2018-05-21T00:29:31.816Z,93.40
2018-05-21T00:32:00.112Z,92.80
2018-05-21T00:34:28.528Z,92.50
2018-05-21T00:36:56.826Z,92.50
2018-05-21T00:39:25.311Z,92.00
2018-05-21T00:41:54.371Z,92.10
2018-05-21T00:44:23.595Z,91.90
2018-05-21T00:46:52.024Z,91.90
2018-05-21T00:49:20.303Z,92.00
2018-05-21T00:51:48.708Z,92.10
2018-05-21T00:54:17.765Z,92.00
2018-05-21T00:56:46.193Z,91.90
2018-05-21T00:59:14.484Z,91.80
2018-05-21T01:01:42.940Z,91.80
2018-05-21T01:04:11.984Z,91.50
2018-05-21T01:06:40.412Z,91.50
2018-05-21T01:09:09.456Z,91.40
2018-05-21T01:11:37.839Z,91.40
2018-05-21T01:14:06.900Z,91.20
2018-05-21T01:16:35.256Z,91.20
2018-05-21T01:19:03.532Z,91.20
2018-05-21T01:21:31.881Z,91.10
2018-05-21T01:24:00.182Z,91.10
2018-05-21T01:26:28.544Z,91.00
2018-05-21T01:28:56.823Z,90.90
2018-05-21T01:31:25.169Z,90.90
2018-05-21T01:33:53.444Z,90.90
2018-05-21T01:36:23.466Z,90.70
2018-05-21T01:38:51.793Z,90.70
2018-05-21T01:41:20.991Z,90.80
2018-05-21T01:43:50.063Z,90.90
2018-05-21T01:46:18.449Z,90.90
2018-05-21T01:48:46.796Z,90.90
2018-05-21T01:51:15.232Z,90.90
2018-05-21T01:53:44.321Z,90.90
2018-05-21T01:56:12.702Z,90.90
2018-05-21T01:58:41.812Z,91.20
2018-05-21T02:01:10.225Z,91.10
2018-05-21T02:03:38.500Z,91.10
2018-05-21T02:06:06.815Z,91.00
2018-05-21T02:08:35.118Z,90.90
2018-05-21T02:11:03.458Z,90.90
2018-05-21T02:13:31.749Z,90.80
2018-05-21T02:16:00.081Z,90.70
2018-05-21T02:18:28.377Z,90.80
2018-05-21T02:20:57.430Z,90.70
2018-05-21T02:23:25.747Z,90.70
2018-05-21T02:25:54.046Z,90.70
2018-05-21T02:28:22.356Z,90.80
2018-05-21T02:30:51.414Z,90.70
2018-05-21T02:33:19.746Z,90.70
2018-05-21T02:35:48.036Z,90.70
2018-05-21T02:38:16.345Z,90.50
2018-05-21T02:40:44.631Z,90.40
2018-05-21T02:43:12.937Z,90.30
2018-05-21T02:45:41.999Z,90.20
2018-05-21T02:48:10.308Z,90.20
2018-05-21T02:50:39.355Z,90.20
2018-05-21T02:53:07.689Z,90.20
2018-05-21T02:55:35.967Z,90.10
2018-05-21T02:58:04.288Z,90.10
2018-05-21T03:00:32.577Z,90.10
2018-05-21T03:03:00.889Z,90.10
2018-05-21T03:05:29.176Z,89.90
2018-05-21T03:07:57.486Z,89.80
2018-05-21T03:10:25.777Z,89.70
2018-05-21T03:12:54.101Z,89.60
2018-05-21T03:15:22.409Z,89.40
2018-05-21T03:17:50.729Z,89.30
2018-05-21T03:20:19.018Z,89.40
2018-05-21T03:22:47.359Z,89.50
2018-05-21T03:25:15.640Z,89.50
2018-05-21T03:27:43.963Z,90.20
2018-05-21T03:30:13.016Z,89.40
2018-05-21T03:32:41.331Z,89.40
2018-05-21T03:35:09.668Z,89.20
2018-05-21T03:37:37.988Z,88.90
2018-05-21T03:40:07.037Z,88.70
2018-05-21T03:42:35.355Z,88.70
2018-05-21T03:45:04.408Z,89.30
2018-05-21T03:47:33.491Z,88.00
2018-05-21T03:50:01.783Z,88.00
2018-05-21T03:52:30.097Z,88.30
2018-05-21T03:54:58.399Z,89.20
2018-05-21T03:57:26.716Z,88.10
2018-05-21T04:00:06.941Z,87.90
2018-05-21T04:02:46.988Z,88.10
2018-05-21T04:05:15.272Z,87.90
2018-05-21T04:07:43.590Z,87.90
2018-05-21T04:10:11.866Z,88.00
2018-05-21T04:12:40.197Z,88.30
2018-05-21T04:15:08.475Z,88.70
2018-05-21T04:17:36.795Z,88.30
2018-05-21T04:20:05.080Z,88.70
2018-05-21T04:22:33.395Z,88.70
2018-05-21T04:25:02.468Z,88.10
2018-05-21T04:27:30.753Z,88.00
2018-05-21T04:29:59.836Z,87.70
2018-05-21T04:32:28.152Z,87.70
2018-05-21T04:34:56.477Z,87.40
2018-05-21T04:37:24.764Z,87.60
2018-05-21T04:39:53.109Z,87.60
2018-05-21T04:42:21.392Z,87.10
2018-05-21T04:44:49.699Z,87.10
2018-05-21T04:47:17.991Z,87.00
2018-05-21T04:49:47.091Z,86.80
2018-05-21T04:52:16.168Z,86.50
2018-05-21T04:54:44.507Z,86.40
2018-05-21T04:57:12.801Z,86.70
2018-05-21T04:59:41.119Z,86.70
2018-05-21T05:02:10.230Z,87.10
2018-05-21T05:04:38.532Z,87.10
2018-05-21T05:07:06.812Z,87.80
2018-05-21T05:09:35.139Z,88.20
2018-05-21T05:12:03.439Z,88.30
2018-05-21T05:14:31.758Z,87.90
2018-05-21T05:17:00.039Z,87.50
2018-05-21T05:19:28.352Z,87.70
2018-05-21T05:21:57.408Z,85.90
2018-05-21T05:24:25.744Z,86.10
2018-05-21T05:26:54.039Z,86.50
2018-05-21T05:29:22.349Z,86.10
2018-05-21T05:31:50.633Z,85.60
2018-05-21T05:34:18.940Z,85.80
2018-05-21T05:36:47.993Z,85.80
2018-05-21T05:39:16.300Z,85.70
2018-05-21T05:41:44.605Z,85.80
2018-05-21T05:44:12.937Z,85.40
2018-05-21T05:46:41.237Z,85.10
2018-05-21T05:49:10.333Z,84.50
2018-05-21T05:51:39.391Z,84.90
2018-05-21T05:54:07.691Z,84.80
2018-05-21T05:56:35.981Z,84.50
2018-05-21T05:59:04.300Z,83.80
2018-05-21T06:01:32.580Z,85.10
2018-05-21T06:04:00.896Z,84.60
2018-05-21T06:06:29.172Z,84.90
2018-05-21T06:08:57.486Z,84.20
2018-05-21T06:11:26.552Z,85.00
2018-05-21T06:13:54.880Z,85.80
2018-05-21T06:16:23.160Z,84.50
2018-05-21T06:18:51.440Z,84.00
2018-05-21T06:21:19.749Z,83.80
2018-05-21T06:23:48.049Z,83.50
2018-05-21T06:26:16.392Z,84.00
2018-05-21T06:28:44.708Z,84.50
2018-05-21T06:31:13.784Z,83.70
2018-05-21T06:33:42.077Z,83.40
2018-05-21T06:36:10.406Z,82.50
2018-05-21T06:38:38.687Z,81.30
2018-05-21T06:41:07.088Z,79.50
2018-05-21T06:43:35.321Z,80.10
2018-05-21T06:46:03.628Z,81.40
2018-05-21T06:48:31.919Z,79.90
2018-05-21T06:51:00.254Z,80.10
2018-05-21T06:53:28.532Z,79.70
2018-05-21T06:55:56.845Z,79.10
2018-05-21T06:58:25.143Z,78.30
2018-05-21T07:00:53.447Z,78.60
2018-05-21T07:03:21.754Z,79.70
2018-05-21T07:05:50.070Z,77.20
2018-05-21T07:08:19.134Z,75.30
2018-05-21T07:10:47.470Z,75.20
2018-05-21T07:13:16.552Z,75.30
2018-05-21T07:15:45.627Z,73.40
2018-05-21T07:18:13.976Z,73.30
2018-05-21T07:20:42.248Z,73.80
2018-05-21T07:23:10.532Z,74.00
2018-05-21T07:25:38.859Z,75.10
2018-05-21T07:28:07.904Z,72.90
2018-05-21T07:30:36.220Z,72.90
2018-05-21T07:33:04.506Z,72.10
2018-05-21T07:35:32.832Z,73.20
2018-05-21T07:38:01.116Z,74.10
2018-05-21T07:40:29.433Z,71.10
2018-05-21T07:42:57.723Z,71.70
2018-05-21T07:45:26.040Z,73.50
2018-05-21T07:47:55.104Z,70.70
2018-05-21T07:50:23.434Z,69.80
2018-05-21T07:52:51.724Z,67.70
2018-05-21T07:55:20.049Z,68.30
2018-05-21T07:57:48.364Z,69.80
2018-05-21T08:00:16.652Z,69.40
2018-05-21T08:02:44.975Z,68.40
2018-05-21T08:05:13.255Z,66.70
2018-05-21T08:07:41.570Z,67.10
2018-05-21T08:10:09.855Z,66.40
2018-05-21T08:12:38.196Z,66.30
2018-05-21T08:15:06.502Z,65.80
2018-05-21T08:17:34.843Z,64.90
2018-05-21T08:20:03.124Z,64.80
2018-05-21T08:22:31.441Z,62.60
2018-05-21T08:24:59.730Z,63.90
2018-05-21T08:27:28.040Z,61.80
2018-05-21T08:29:57.113Z,61.80
2018-05-21T08:32:25.444Z,61.80
2018-05-21T08:34:53.729Z,66.10
2018-05-21T08:37:22.036Z,65.00
2018-05-21T08:39:50.403Z,64.80
2018-05-21T08:42:18.717Z,63.60
2018-05-21T08:44:47.767Z,64.00
2018-05-21T08:47:16.076Z,64.00
2018-05-21T08:49:44.390Z,61.80
2018-05-21T08:52:12.730Z,65.90
2018-05-21T08:54:41.009Z,63.70
2018-05-21T08:57:09.349Z,64.40
2018-05-21T08:59:37.629Z,65.50
2018-05-21T09:02:05.939Z,62.80
2018-05-21T09:04:34.220Z,64.70
2018-05-21T09:07:02.553Z,62.80
2018-05-21T09:09:30.829Z,62.50
2018-05-21T09:11:59.140Z,64.80
2018-05-21T09:14:27.423Z,60.30
2018-05-21T09:16:55.737Z,61.40
2018-05-21T09:19:24.021Z,59.70
2018-05-21T09:21:52.344Z,61.40
2018-05-21T09:24:20.659Z,62.40
2018-05-21T09:26:49.734Z,62.70
2018-05-21T09:29:18.016Z,62.70
2018-05-21T09:31:47.090Z,59.10
2018-05-21T09:34:15.389Z,59.10
2018-05-21T09:36:44.469Z,60.30
2018-05-21T09:39:12.762Z,60.20
2018-05-21T09:41:41.075Z,61.30
2018-05-21T09:44:09.382Z,62.10
2018-05-21T09:46:37.703Z,59.00
2018-05-21T09:49:06.762Z,59.70
2018-05-21T09:51:35.089Z,59.60
2018-05-21T09:54:03.376Z,58.10
2018-05-21T09:56:31.660Z,58.90
2018-05-21T09:58:59.982Z,59.80
2018-05-21T10:01:28.300Z,61.10
2018-05-21T10:03:56.640Z,61.60
2018-05-21T10:06:24.929Z,59.80
2018-05-21T10:08:54.013Z,59.60
2018-05-21T10:11:23.073Z,59.50
2018-05-21T10:13:51.408Z,59.50
2018-05-21T10:16:20.458Z,59.80
2018-05-21T10:18:48.780Z,59.80
2018-05-21T10:21:17.835Z,57.70
2018-05-21T10:23:46.148Z,57.60
2018-05-21T10:26:15.204Z,59.20
2018-05-21T10:28:43.520Z,59.20
2018-05-21T10:31:12.574Z,57.80
2018-05-21T10:33:41.652Z,58.00
2018-05-21T10:36:09.941Z,58.00
2018-05-21T10:38:38.257Z,60.80
2018-05-21T10:41:06.541Z,58.90
2018-05-21T10:43:35.641Z,57.60
2018-05-21T10:46:04.694Z,59.40
2018-05-21T10:48:33.013Z,59.30
2018-05-21T10:51:02.072Z,59.50
2018-05-21T10:53:30.387Z,59.40
2018-05-21T10:55:59.440Z,58.60
2018-05-21T10:58:27.760Z,58.50
2018-05-21T11:00:56.072Z,59.40
2018-05-21T11:03:24.440Z,58.80
2018-05-21T11:05:52.737Z,56.50
2018-05-21T11:08:21.059Z,57.80
2018-05-21T11:10:49.363Z,57.80
2018-05-21T11:13:17.720Z,56.60
2018-05-21T11:15:46.793Z,56.70
2018-05-21T11:18:15.109Z,56.70
2018-05-21T11:20:44.169Z,59.10
2018-05-21T11:23:12.484Z,59.00
2018-05-21T11:25:40.786Z,57.50
2018-05-21T11:28:09.105Z,56.60
2018-05-21T11:30:37.388Z,58.10
2018-05-21T11:33:05.709Z,57.00
2018-05-21T11:35:33.997Z,56.10
2018-05-21T11:38:02.304Z,57.90
2018-05-21T11:40:30.631Z,58.40
2018-05-21T11:42:58.911Z,56.90
2018-05-21T11:45:27.231Z,56.50
2018-05-21T11:47:55.517Z,59.20
2018-05-21T11:50:23.830Z,57.60
2018-05-21T11:52:52.880Z,55.20
2018-05-21T11:55:21.203Z,55.10
2018-05-21T11:57:49.484Z,57.70
2018-05-21T12:00:17.804Z,55.70
2018-05-21T12:02:46.185Z,56.90
2018-05-21T12:05:14.434Z,55.60
2018-05-21T12:07:42.740Z,57.50
2018-05-21T12:10:11.071Z,52.80
2018-05-21T12:12:39.364Z,53.10
2018-05-21T12:15:07.672Z,54.30
2018-05-21T12:17:35.968Z,54.10
2018-05-21T12:20:04.293Z,53.10
2018-05-21T12:22:32.580Z,53.10
2018-05-21T12:25:00.892Z,55.60
2018-05-21T12:27:29.195Z,55.20
2018-05-21T12:29:58.271Z,51.30
2018-05-21T12:32:26.560Z,51.20
2018-05-21T12:34:54.888Z,53.30
2018-05-21T12:37:23.189Z,53.80
2018-05-21T12:39:51.508Z,52.80
2018-05-21T12:42:19.802Z,53.20
2018-05-21T12:44:48.125Z,54.40
2018-05-21T12:47:16.409Z,52.40
2018-05-21T12:49:44.728Z,51.00
2018-05-21T12:52:13.004Z,52.40
2018-05-21T12:54:41.343Z,52.40
2018-05-21T12:57:09.637Z,50.80
2018-05-21T12:59:37.949Z,52.20
2018-05-21T13:02:06.303Z,51.90
2018-05-21T13:04:35.388Z,51.30
2018-05-21T13:07:03.680Z,51.30
2018-05-21T13:09:31.984Z,52.30
2018-05-21T13:12:00.268Z,50.40
2018-05-21T13:14:28.596Z,49.60
2018-05-21T13:16:56.888Z,51.90
2018-05-21T13:19:25.976Z,50.40
2018-05-21T13:21:55.034Z,51.80
2018-05-21T13:24:23.449Z,51.70
2018-05-21T13:26:51.660Z,50.00
2018-05-21T13:29:20.040Z,48.20
2018-05-21T13:31:48.277Z,48.20
2018-05-21T13:34:17.343Z,47.30
2018-05-21T13:36:45.633Z,47.30
2018-05-21T13:39:13.912Z,49.90
2018-05-21T13:41:42.216Z,48.00
2018-05-21T13:44:11.265Z,45.80
2018-05-21T13:46:39.578Z,45.70
2018-05-21T13:49:07.856Z,46.30
2018-05-21T13:51:36.941Z,45.00
2018-05-21T13:54:05.228Z,44.90
2018-05-21T13:56:34.320Z,46.00
2018-05-21T13:59:03.388Z,44.20
2018-05-21T14:01:31.717Z,44.10
2018-05-21T14:04:00.001Z,44.20
2018-05-21T14:06:28.337Z,44.90
2018-05-21T14:08:56.628Z,43.60
2018-05-21T14:11:25.704Z,43.00
2018-05-21T14:13:53.994Z,42.90
2018-05-21T14:16:22.313Z,43.80
2018-05-21T14:18:50.629Z,43.40
2018-05-21T14:21:18.940Z,43.40
2018-05-21T14:23:47.998Z,44.50
2018-05-21T14:26:16.312Z,44.40
2018-05-21T14:28:45.360Z,44.40
2018-05-21T14:31:13.687Z,44.40
2018-05-21T14:33:42.742Z,42.50
2018-05-21T14:36:11.055Z,42.50
2018-05-21T14:38:40.109Z,41.60
2018-05-21T14:41:08.425Z,41.50
2018-05-21T14:43:37.481Z,43.40
2018-05-21T14:46:05.798Z,43.40
2018-05-21T14:48:34.100Z,42.50
2018-05-21T14:51:02.412Z,43.50
2018-05-21T14:53:30.741Z,40.00
2018-05-21T14:55:59.064Z,40.10
2018-05-21T14:58:27.339Z,40.10
2018-05-21T15:00:55.657Z,39.80
2018-05-21T15:03:23.945Z,40.10
2018-05-21T15:05:53.021Z,40.90
2018-05-21T15:08:21.313Z,40.80
2018-05-21T15:10:50.387Z,41.90
2018-05-21T15:13:18.676Z,41.90
2018-05-21T15:15:46.961Z,41.40
2018-05-21T15:18:16.055Z,41.30
2018-05-21T15:20:45.107Z,42.60
2018-05-21T15:23:13.443Z,42.50
2018-05-21T15:25:41.728Z,41.60
2018-05-21T15:28:10.037Z,44.30
2018-05-21T15:30:38.324Z,43.10
2018-05-21T15:33:06.664Z,43.90
2018-05-21T15:35:34.950Z,43.20
2018-05-21T15:38:03.263Z,46.30
2018-05-21T15:40:31.565Z,45.70
2018-05-21T15:43:00.653Z,45.20
2018-05-21T15:45:28.932Z,45.10
2018-05-21T15:47:57.244Z,45.30
2018-05-21T15:50:25.544Z,45.20
2018-05-21T15:52:53.855Z,44.20
2018-05-21T15:55:22.133Z,43.10
2018-05-21T15:57:50.457Z,43.10
2018-05-21T16:00:18.784Z,41.00
2018-05-21T16:02:47.116Z,42.90
2018-05-21T16:05:15.408Z,41.80
2018-05-21T16:07:43.715Z,41.60
2018-05-21T16:10:12.022Z,42.10
2018-05-21T16:12:41.113Z,42.10
2018-05-21T16:15:10.179Z,42.80
2018-05-21T16:17:38.510Z,42.80
2018-05-21T16:20:06.793Z,41.30
2018-05-21T16:22:35.107Z,39.00
2018-05-21T16:25:03.398Z,40.60
2018-05-21T16:27:31.707Z,39.80
2018-05-21T16:30:00.761Z,39.20
2018-05-21T16:32:29.063Z,39.20
2018-05-21T16:34:58.129Z,37.20
2018-05-21T16:37:26.438Z,37.20
2018-05-21T16:39:55.487Z,36.30
2018-05-21T16:42:23.799Z,36.30
2018-05-21T16:44:52.067Z,36.40
2018-05-21T16:47:20.400Z,34.60
2018-05-21T16:49:48.691Z,35.20
2018-05-21T16:52:17.776Z,38.20
2018-05-21T16:54:46.068Z,38.20
2018-05-21T16:57:14.385Z,37.90
2018-05-21T16:59:42.669Z,36.40
2018-05-21T17:02:11.712Z,35.70
2018-05-21T17:04:40.036Z,35.60
2018-05-21T17:07:09.202Z,36.80
2018-05-21T17:09:38.229Z,37.20
2018-05-21T17:12:07.300Z,36.60
2018-05-21T17:14:35.629Z,36.60
2018-05-21T17:17:03.935Z,34.90
2018-05-21T17:19:33.008Z,36.30
2018-05-21T17:22:01.288Z,35.60
2018-05-21T17:24:29.633Z,36.10
2018-05-21T17:26:58.688Z,36.30
2018-05-21T17:29:27.067Z,36.20
2018-05-21T17:31:55.326Z,36.70
2018-05-21T17:34:23.632Z,36.90
2018-05-21T17:36:51.922Z,36.80
2018-05-21T17:39:20.235Z,37.60
2018-05-21T17:41:48.534Z,37.30
2018-05-21T17:44:16.866Z,37.40
2018-05-21T17:46:45.914Z,38.40
2018-05-21T17:49:14.232Z,38.30
2018-05-21T17:51:42.571Z,38.50
2018-05-21T17:54:10.849Z,37.50
2018-05-21T17:56:39.156Z,38.30
2018-05-21T17:59:07.485Z,38.30
2018-05-21T18:01:35.757Z,39.00
2018-05-21T18:04:04.079Z,38.10
2018-05-21T18:06:32.359Z,38.10
2018-05-21T18:09:00.661Z,38.90
2018-05-21T18:11:29.715Z,39.10
2018-05-21T18:13:58.028Z,39.10
2018-05-21T18:16:27.084Z,40.40
2018-05-21T18:18:55.399Z,40.40
2018-05-21T18:21:23.682Z,42.20
2018-05-21T18:23:52.769Z,43.80
2018-05-21T18:26:21.060Z,43.80
2018-05-21T18:28:50.132Z,44.30
2018-05-21T18:31:18.418Z,44.20
2018-05-21T18:33:46.748Z,44.80
2018-05-21T18:36:15.033Z,45.70
2018-05-21T18:38:43.348Z,45.80
2018-05-21T18:41:11.639Z,46.70
2018-05-21T18:43:40.715Z,49.10
2018-05-21T18:46:09.910Z,49.10
2018-05-21T18:48:38.213Z,50.00
2018-05-21T18:51:07.288Z,51.30
2018-05-21T18:53:35.584Z,51.20
2018-05-21T18:56:04.656Z,52.80
2018-05-21T18:58:32.940Z,52.80
2018-05-21T19:01:01.269Z,54.20
2018-05-21T19:03:29.557Z,55.10
2018-05-21T19:05:57.939Z,55.00
2018-05-21T19:08:26.944Z,56.10
2018-05-21T19:10:55.255Z,56.10
2018-05-21T19:13:24.301Z,56.40
2018-05-21T19:15:52.617Z,56.40
2018-05-21T19:18:20.905Z,56.70
2018-05-21T19:20:49.988Z,57.90
2018-05-21T19:23:18.272Z,57.90
2018-05-21T19:25:46.596Z,58.30
2018-05-21T19:28:14.882Z,57.80
2018-05-21T19:30:43.185Z,58.40
2018-05-21T19:33:11.473Z,58.20
2018-05-21T19:35:39.808Z,58.70
2018-05-21T19:38:08.116Z,59.10
2018-05-21T19:40:36.466Z,59.60
2018-05-21T19:43:04.755Z,60.30
2018-05-21T19:45:33.073Z,60.30
2018-05-21T19:48:02.135Z,60.80
2018-05-21T19:50:30.465Z,60.80
2018-05-21T19:52:58.751Z,61.30
2018-05-21T19:55:27.082Z,61.20
2018-05-21T19:57:55.356Z,60.90
2018-05-21T20:00:23.668Z,61.30
2018-05-21T20:02:51.952Z,61.60
2018-05-21T20:05:20.285Z,62.60
2018-05-21T20:07:48.571Z,62.90
2018-05-21T20:10:16.896Z,63.30
2018-05-21T20:12:45.175Z,64.00
2018-05-21T20:15:13.484Z,64.00
2018-05-21T20:17:41.767Z,63.50
2018-05-21T20:20:10.092Z,62.60
2018-05-21T20:22:38.384Z,62.70
2018-05-21T20:25:06.726Z,62.80
2018-05-21T20:27:35.057Z,63.80
2018-05-21T20:30:03.360Z,64.10
2018-05-21T20:32:31.667Z,64.90
2018-05-21T20:35:00.725Z,65.30
2018-05-21T20:37:29.036Z,65.30
2018-05-21T20:39:58.087Z,65.40
2018-05-21T20:42:26.405Z,65.30
2018-05-21T20:44:55.448Z,65.60
2018-05-21T20:47:23.757Z,65.60
2018-05-21T20:49:52.056Z,65.70
2018-05-21T20:52:21.133Z,65.80
2018-05-21T20:54:49.419Z,65.70
2018-05-21T20:57:17.759Z,66.00
2018-05-21T20:59:46.064Z,66.70
2018-05-21T21:02:14.375Z,67.20
2018-05-21T21:04:42.677Z,67.50
2018-05-21T21:07:10.984Z,66.80
2018-05-21T21:09:39.272Z,68.10
2018-05-21T21:12:07.600Z,69.20
2018-05-21T21:14:35.892Z,69.50
2018-05-21T21:17:04.240Z,69.70
2018-05-21T21:19:32.537Z,69.90
2018-05-21T21:22:00.857Z,70.00
2018-05-21T21:24:29.133Z,70.00
2018-05-21T21:26:57.448Z,69.70
2018-05-21T21:29:26.523Z,69.70
2018-05-21T21:31:54.841Z,69.70
2018-05-21T21:34:23.128Z,70.10
2018-05-21T21:36:51.436Z,70.40
2018-05-21T21:39:19.732Z,70.50
2018-05-21T21:41:48.045Z,70.40
2018-05-21T21:44:16.338Z,71.30
2018-05-21T21:46:44.660Z,70.70
2018-05-21T21:49:13.737Z,71.30
2018-05-21T21:51:42.072Z,71.20
2018-05-21T21:54:10.361Z,71.50
2018-05-21T21:56:38.680Z,71.60
2018-05-21T21:59:06.970Z,71.60
2018-05-21T22:01:35.293Z,71.90
2018-05-21T22:04:03.569Z,72.10
2018-05-21T22:06:31.885Z,72.30
2018-05-21T22:09:00.180Z,72.70
2018-05-21T22:11:28.497Z,73.00
2018-05-21T22:13:56.788Z,73.10
2018-05-21T22:16:25.116Z,73.30
2018-05-21T22:18:54.177Z,73.40
2018-05-21T22:21:22.499Z,73.40
2018-05-21T22:23:51.571Z,74.10
2018-05-21T22:26:19.851Z,74.10
2018-05-21T22:28:48.161Z,75.00
2018-05-21T22:31:16.457Z,75.60
2018-05-21T22:33:44.768Z,76.60
2018-05-21T22:36:13.069Z,77.10
2018-05-21T22:38:42.145Z,77.20
2018-05-21T22:41:10.451Z,77.20
2018-05-21T22:43:38.780Z,77.00
2018-05-21T22:46:07.060Z,76.90
2018-05-21T22:48:35.396Z,76.70
2018-05-21T22:51:03.677Z,76.50
2018-05-21T22:53:32.015Z,76.30
2018-05-21T22:56:00.304Z,76.20
2018-05-21T22:58:28.608Z,76.10
2018-05-21T23:00:56.912Z,76.40
2018-05-21T23:03:25.215Z,76.40
2018-05-21T23:05:53.495Z,76.40
2018-05-21T23:08:21.807Z,76.40
2018-05-21T23:10:50.100Z,76.30
2018-05-21T23:13:18.423Z,76.40
2018-05-21T23:15:46.700Z,76.40
2018-05-21T23:18:15.017Z,76.30
2018-05-21T23:20:43.301Z,76.40
2018-05-21T23:23:11.619Z,76.40
2018-05-21T23:25:39.896Z,76.40
2018-05-21T23:28:08.220Z,76.70
2018-05-21T23:30:37.276Z,77.80
2018-05-21T23:33:05.577Z,77.80
2018-05-21T23:35:33.861Z,77.90
2018-05-21T23:38:02.923Z,78.10
2018-05-21T23:40:31.218Z,78.10
2018-05-21T23:42:59.537Z,78.10
2018-05-21T23:45:27.815Z,78.20
2018-05-21T23:47:56.124Z,78.10
2018-05-21T23:50:24.405Z,78.10
2018-05-21T23:52:52.716Z,78.00
2018-05-21T23:55:21.763Z,78.30
2018-05-21T23:57:50.074Z,78.30
